Time;durP1;ratioP1;P1;durP2;ratioP2;P2;SDS_P1;SDS_P2;PMS_P1;PMS_P2;Temp;Humidity;BMP_temperature;BMP_pressure;BME280_temperature;BME280_humidity;BME280_pressure;Samples;Min_cycle;Max_cycle;Signal;HPM_P1;HPM_P2
2022/02/01 00:01:43;;;;;;;60.80;20.77;;;;;;;3.72;65.43;99474.53;4946847;28;96701;-95
2022/02/01 00:04:17;;;;;;;50.77;20.17;;;;;;;3.73;65.58;99477.13;4945104;28;100393;-96
2022/02/01 00:06:58;;;;;;;61.70;21.90;;;;;;;3.57;65.09;99460.13;4935666;28;100537;-96
2022/02/01 00:12:38;;;;;;;67.73;23.20;;;;;;;3.83;64.92;99496.81;4957116;28;96772;-95
2022/02/01 00:37:15;;;;;;;67.57;22.43;;;;;;;3.67;65.71;99536.94;4930746;28;98764;-95
2022/02/01 00:39:45;;;;;;;58.38;24.10;;;;;;;3.70;65.25;99539.47;4925633;28;101553;-95
2022/02/01 00:42:11;;;;;;;64.77;23.43;;;;;;;3.75;65.41;99539.38;4918899;28;96938;-95
2022/02/01 00:44:38;;;;;;;56.63;22.07;;;;;;;3.76;65.73;99560.13;4936261;28;96938;-95
2022/02/01 00:47:04;;;;;;;62.00;22.20;;;;;;;3.63;65.38;99528.34;4923055;28;100524;-94
2022/02/01 00:49:32;;;;;;;60.50;21.33;;;;;;;3.77;65.24;99551.44;4924999;28;101506;-95
2022/02/01 00:51:58;;;;;;;46.47;18.53;;;;;;;3.72;65.42;99555.00;4945761;28;97133;-95
2022/02/01 00:54:23;;;;;;;55.33;19.07;;;;;;;3.60;65.32;99543.13;4926985;28;96748;-94
2022/02/01 00:56:49;;;;;;;51.50;19.97;;;;;;;3.68;65.63;99556.81;4923278;28;98327;-95
2022/02/01 00:59:14;;;;;;;42.27;18.17;;;;;;;3.67;65.71;99554.25;4941611;28;101187;-95
2022/02/01 01:01:40;;;;;;;46.30;18.13;;;;;;;3.67;65.75;99569.84;4914002;28;96691;-95
2022/02/01 01:04:06;;;;;;;47.20;18.87;;;;;;;3.61;65.58;99571.66;4942684;28;96670;-95
2022/02/01 01:06:31;;;;;;;45.17;17.13;;;;;;;3.43;65.83;99538.22;4906681;28;101041;-95
2022/02/01 01:08:57;;;;;;;50.87;20.67;;;;;;;3.62;65.74;99578.53;4925851;28;100697;-95
2022/02/01 01:11:23;;;;;;;45.93;17.73;;;;;;;3.47;65.73;99563.25;4932834;28;96697;-95
2022/02/01 01:54:06;;;;;;;32.13;13.47;;;;;;;3.47;65.65;99575.38;4955948;28;96645;-96
2022/02/01 01:56:33;;;;;;;37.23;14.17;;;;;;;3.61;65.18;99589.81;4922299;28;97033;-96
2022/02/01 01:59:03;;;;;;;32.83;14.30;;;;;;;3.69;65.46;99613.03;4964385;28;98826;-96
2022/02/01 02:01:29;;;;;;;29.23;13.33;;;;;;;3.55;65.48;99597.72;4944014;28;101855;-95
2022/02/01 02:03:55;;;;;;;30.87;13.30;;;;;;;3.77;65.03;99636.28;4924285;28;96678;-95
2022/02/01 02:06:21;;;;;;;39.30;13.00;;;;;;;3.64;65.10;99612.28;4938142;28;96807;-96
2022/02/01 02:08:51;;;;;;;32.47;12.87;;;;;;;3.55;65.31;99610.69;4925086;28;100615;-96
2022/02/01 02:16:38;;;;;;;31.30;11.80;;;;;;;3.66;64.81;99607.88;4940448;28;97570;-96
2022/02/01 02:19:08;;;;;;;27.47;11.87;;;;;;;3.61;65.00;99623.56;4940219;28;100365;-94
2022/02/01 02:21:34;;;;;;;27.80;10.73;;;;;;;3.58;65.18;99628.81;4923078;28;101251;-95
2022/02/01 02:24:00;;;;;;;26.63;10.90;;;;;;;3.61;65.09;99623.56;4921411;28;97063;-95
2022/02/01 02:26:26;;;;;;;30.50;10.53;;;;;;;3.65;64.87;99615.72;4943927;28;96802;-95
2022/02/01 02:28:52;;;;;;;31.47;11.77;;;;;;;3.69;64.80;99628.59;4946512;28;100084;-95
2022/02/01 02:31:21;;;;;;;28.73;11.47;;;;;;;3.14;64.84;99541.28;4955395;28;101232;-94
2022/02/01 02:33:46;;;;;;;35.17;10.53;;;;;;;3.70;64.74;99630.34;4922108;28;97447;-96
2022/02/01 02:36:16;;;;;;;27.23;10.33;;;;;;;3.69;65.28;99627.75;4924161;28;96660;-95
2022/02/01 02:38:46;;;;;;;29.43;10.10;;;;;;;3.67;65.33;99621.75;4947523;28;101304;-95
2022/02/01 02:46:35;;;;;;;37.83;10.77;;;;;;;3.54;65.88;99618.47;4952249;28;96729;-95
2022/02/01 02:49:04;;;;;;;26.77;9.63;;;;;;;3.63;65.68;99626.13;4921550;28;100531;-95
2022/02/01 02:51:30;;;;;;;28.93;10.27;;;;;;;3.57;65.90;99606.31;4933798;28;101063;-95
2022/02/01 02:53:56;;;;;;;30.43;10.43;;;;;;;3.63;66.21;99616.59;4945108;28;96566;-94
2022/02/01 02:56:21;;;;;;;26.27;12.10;;;;;;;3.66;65.90;99618.28;4945088;28;96598;-94
2022/02/01 02:58:53;;;;;;;28.47;11.10;;;;;;;3.65;65.92;99615.72;4942467;28;98843;-95
2022/02/01 03:01:19;;;;;;;29.42;11.25;;;;;;;3.56;66.40;99627.97;4929470;28;98675;-95
2022/02/01 03:03:45;;;;;;;29.33;10.60;;;;;;;3.46;66.50;99622.94;4944899;28;96771;-94
2022/02/01 03:06:11;;;;;;;31.07;11.47;;;;;;;3.61;66.19;99623.56;4932546;28;96801;-95
2022/02/01 03:08:37;;;;;;;31.50;12.27;;;;;;;3.47;65.71;99599.56;4935472;28;100832;-95
2022/02/01 03:11:09;;;;;;;36.40;12.63;;;;;;;3.24;65.65;99545.47;4948233;28;100018;-96
2022/02/01 03:13:36;;;;;;;42.13;11.97;;;;;;;3.44;66.11;99585.81;4927075;28;96600;-96
2022/02/01 03:16:24;;;;;;;35.80;12.43;;;;;;;3.48;65.72;99588.31;4970662;28;96906;-96
2022/02/01 03:21:34;;;;;;;38.40;12.57;;;;;;;3.66;66.09;99626.06;4928874;28;100166;-94
2022/02/01 03:24:00;;;;;;;39.83;11.37;;;;;;;3.32;65.69;99577.34;4956709;28;96714;-96
2022/02/01 03:26:26;;;;;;;34.07;12.13;;;;;;;3.24;66.22;99565.38;4913711;28;96950;-95
2022/02/01 03:28:51;;;;;;;35.80;12.30;;;;;;;3.68;65.64;99624.31;4937647;28;100886;-94
2022/02/01 03:31:17;;;;;;;33.03;13.30;;;;;;;3.66;65.96;99639.03;4965758;28;100549;-95
2022/02/01 03:33:44;;;;;;;41.57;13.77;;;;;;;3.70;65.84;99630.34;4945244;28;97090;-96
2022/02/01 03:36:10;;;;;;;35.63;12.57;;;;;;;3.70;66.09;99629.50;4956671;28;97907;-96
2022/02/01 03:38:35;;;;;;;34.03;14.03;;;;;;;3.06;66.04;99530.22;4962703;28;100237;-95
2022/02/01 03:41:01;;;;;;;34.40;12.73;;;;;;;3.67;66.06;99632.13;4935798;28;100191;-95
2022/02/01 03:43:27;;;;;;;36.93;12.70;;;;;;;3.23;65.99;99564.53;4953363;28;97077;-95
2022/02/01 03:45:52;;;;;;;37.43;13.47;;;;;;;3.33;66.16;99580.78;4942124;28;96796;-95
2022/02/01 03:48:18;;;;;;;40.80;12.80;;;;;;;3.42;66.26;99608.31;4923242;28;101025;-95
2022/02/01 03:50:44;;;;;;;34.70;12.50;;;;;;;3.49;65.78;99608.19;4913235;28;101329;-95
2022/02/01 03:53:09;;;;;;;35.80;11.83;;;;;;;3.66;65.77;99640.78;4946853;28;96715;-92
2022/02/01 03:55:36;;;;;;;35.57;10.53;;;;;;;3.51;65.73;99621.97;4940315;28;96708;-95
2022/02/01 03:58:02;;;;;;;33.03;11.93;;;;;;;3.51;66.14;99642.75;4923890;28;100521;-95
2022/02/01 04:00:28;;;;;;;32.93;11.23;;;;;;;3.37;65.91;99617.03;4944782;28;100202;-95
2022/02/01 04:02:54;;;;;;;39.27;11.13;;;;;;;3.06;65.85;99567.38;4918452;28;96937;-96
2022/02/01 04:05:19;;;;;;;32.10;10.90;;;;;;;3.41;66.06;99623.03;4969476;28;96695;-95
2022/02/01 04:07:47;;;;;;;31.60;11.57;;;;;;;3.65;65.88;99665.03;4924026;28;98886;-95
2022/02/01 04:10:15;;;;;;;32.57;11.53;;;;;;;3.63;66.02;99662.44;4953158;28;98339;-95
2022/02/01 04:12:41;;;;;;;30.10;12.53;;;;;;;3.60;66.13;99665.09;4922063;28;96592;-96
2022/02/01 04:15:08;;;;;;;32.80;10.57;;;;;;;3.58;65.89;99662.53;4924558;28;97157;-95
2022/02/01 04:17:34;;;;;;;27.50;9.73;;;;;;;3.63;65.61;99654.66;4935773;28;100403;-96
2022/02/01 04:20:01;;;;;;;32.13;10.80;;;;;;;3.36;65.62;99630.88;4924793;28;100161;-96
2022/02/01 04:22:27;;;;;;;31.30;10.77;;;;;;;3.59;65.73;99671.19;4956187;28;96681;-93
2022/02/01 04:24:52;;;;;;;28.63;10.53;;;;;;;3.65;65.46;99685.81;4959125;28;96940;-94
2022/02/01 04:27:31;;;;;;;32.03;10.60;;;;;;;3.55;65.97;99672.97;4953763;28;100609;-95
2022/02/01 04:30:08;;;;;;;28.23;9.53;;;;;;;3.51;65.73;99678.22;4933807;28;100154;-94
2022/02/01 04:32:41;;;;;;;23.53;11.17;;;;;;;3.44;65.35;99655.88;4970876;28;96350;-95
2022/02/01 04:35:09;;;;;;;27.83;9.63;;;;;;;3.59;65.52;99666.84;4971873;28;96656;-94
2022/02/01 04:37:36;;;;;;;24.93;9.80;;;;;;;3.47;65.47;99653.22;4946741;28;97441;-93
2022/02/01 04:40:03;;;;;;;28.80;10.20;;;;;;;3.38;65.23;99644.69;4976620;28;99861;-93
2022/02/01 04:42:32;;;;;;;27.90;10.00;;;;;;;3.13;65.24;99602.69;4944549;28;96441;-94
2022/02/01 04:44:59;;;;;;;34.27;10.17;;;;;;;3.38;65.43;99655.06;4957502;28;96356;-95
2022/02/01 04:47:31;;;;;;;31.27;11.83;;;;;;;3.38;65.24;99649.88;4968592;28;100402;-95
2022/02/01 04:49:56;;;;;;;26.95;9.10;;;;;;;3.31;65.14;99645.66;4937517;28;100111;-95
2022/02/01 04:52:22;;;;;;;31.90;9.90;;;;;;;3.51;65.50;99694.66;4917153;28;96966;-95
2022/02/01 04:54:48;;;;;;;29.03;10.20;;;;;;;3.28;65.26;99661.25;4961076;28;97615;-95
2022/02/01 04:57:14;;;;;;;25.53;8.73;;;;;;;3.37;65.43;99668.06;4952924;28;100034;-95
2022/02/01 04:59:39;;;;;;;26.53;10.23;;;;;;;3.13;65.41;99633.81;4952147;28;97972;-96
2022/02/01 05:02:05;;;;;;;26.17;9.73;;;;;;;3.21;65.52;99645.84;4965351;28;97494;-94
2022/02/01 05:04:31;;;;;;;23.27;9.73;;;;;;;3.23;65.97;99670.88;4945388;28;97178;-95
2022/02/01 05:06:56;;;;;;;22.73;8.17;;;;;;;3.51;65.78;99709.38;4940249;28;101009;-96
2022/02/01 05:09:23;;;;;;;27.80;9.90;;;;;;;3.40;65.54;99679.25;4919669;28;99321;-95
2022/02/01 05:11:50;;;;;;;30.77;8.80;;;;;;;3.48;65.83;99707.66;4928161;28;96972;-95
2022/02/01 05:14:27;;;;;;;27.33;9.20;;;;;;;3.49;65.75;99711.13;4945624;28;96694;-96
2022/02/01 05:19:44;;;;;;;28.70;10.27;;;;;;;3.35;66.34;99707.00;4955306;28;101270;-96
2022/02/01 05:22:12;;;;;;;27.50;9.23;;;;;;;2.91;66.12;99611.69;4926535;28;96569;-95
2022/02/01 05:24:39;;;;;;;27.90;9.80;;;;;;;3.30;65.91;99674.22;4945213;28;96934;-95
2022/02/01 05:27:09;;;;;;;36.43;11.30;;;;;;;3.31;65.96;99675.94;4913161;28;100988;-95
2022/02/01 05:29:36;;;;;;;31.60;10.90;;;;;;;3.33;65.56;99675.03;4922946;28;101152;-95
2022/02/01 05:32:16;;;;;;;41.00;12.00;;;;;;;3.47;65.69;99718.94;4923043;28;96842;-96
2022/02/01 05:34:42;;;;;;;30.93;10.57;;;;;;;2.98;66.15;99623.66;4942420;28;96722;-94
2022/02/01 05:37:08;;;;;;;32.77;11.03;;;;;;;3.47;66.11;99702.53;4965019;28;97438;-96
2022/02/01 05:39:34;;;;;;;29.60;10.50;;;;;;;3.46;66.19;99701.66;4951415;28;100057;-95
2022/02/01 05:41:59;;;;;;;30.50;11.20;;;;;;;3.13;66.05;99636.41;4939240;28;97093;-95
2022/02/01 05:44:25;;;;;;;27.00;10.90;;;;;;;3.34;65.98;99665.50;4941949;28;97847;-94
2022/02/01 05:46:51;;;;;;;35.80;12.00;;;;;;;2.93;66.24;99602.13;4945313;28;99123;-96
2022/02/01 05:49:17;;;;;;;29.67;10.87;;;;;;;3.30;66.35;99654.31;4935692;28;100190;-96
2022/02/01 05:51:43;;;;;;;32.50;11.57;;;;;;;2.83;66.58;99587.59;4922674;28;96779;-95
2022/02/01 05:54:09;;;;;;;35.93;11.20;;;;;;;3.36;67.11;99689.69;4942832;28;97363;-95
2022/02/01 05:56:34;;;;;;;32.27;11.53;;;;;;;3.22;66.94;99660.50;4928387;28;101066;-96
2022/02/01 05:59:00;;;;;;;35.87;11.43;;;;;;;3.25;66.90;99670.84;4941793;28;97733;-94
2022/02/01 06:01:26;;;;;;;33.57;12.53;;;;;;;2.85;66.79;99622.13;4954975;28;97559;-95
2022/02/01 06:03:52;;;;;;;27.87;10.40;;;;;;;3.05;66.64;99638.25;4933298;28;97598;-93
2022/02/01 06:06:17;;;;;;;23.33;9.97;;;;;;;3.42;66.29;99707.75;4918312;28;101328;-95
2022/02/01 06:08:43;;;;;;;30.03;10.10;;;;;;;3.41;66.73;99708.66;4945378;28;97951;-89
2022/02/01 06:11:08;;;;;;;25.53;10.33;;;;;;;3.16;66.68;99664.03;4947655;28;97178;-91
2022/02/01 06:13:36;;;;;;;29.83;9.47;;;;;;;3.27;66.59;99701.06;4951927;28;97598;-94
2022/02/01 06:16:05;;;;;;;25.47;9.47;;;;;;;3.05;66.14;99650.38;4950123;28;101635;-92
2022/02/01 06:18:31;;;;;;;23.23;7.83;;;;;;;3.29;66.20;99707.09;4940492;28;101841;-91
2022/02/01 06:20:59;;;;;;;23.73;9.17;;;;;;;3.26;66.72;99711.44;4950660;28;96719;-93
2022/02/01 06:23:25;;;;;;;26.97;9.07;;;;;;;3.26;66.81;99721.81;4931836;28;96718;-93
2022/02/01 06:25:51;;;;;;;20.33;7.30;;;;;;;3.13;66.04;99698.66;4927882;28;99931;-94
2022/02/01 06:28:20;;;;;;;21.10;6.97;;;;;;;3.03;66.10;99704.00;4931286;28;101075;-93
2022/02/01 06:30:47;;;;;;;15.87;6.90;;;;;;;2.84;66.42;99682.63;4966799;28;97141;-93
2022/02/01 06:33:13;;;;;;;23.97;8.63;;;;;;;3.09;65.99;99720.34;4923639;28;96808;-92
2022/02/01 06:35:39;;;;;;;24.70;7.93;;;;;;;2.64;66.66;99675.94;4952970;28;100135;-95
2022/02/01 06:38:05;;;;;;;20.63;8.73;;;;;;;2.64;66.73;99657.81;4960386;28;99123;-91
2022/02/01 06:40:31;;;;;;;21.23;8.37;;;;;;;3.02;66.98;99751.53;4944793;28;97231;-92
2022/02/01 06:42:57;;;;;;;23.87;7.73;;;;;;;2.99;66.98;99736.88;4916123;28;96826;-89
2022/02/01 06:45:23;;;;;;;22.93;7.17;;;;;;;3.20;66.59;99768.59;4927911;28;100266;-91
2022/02/01 06:47:49;;;;;;;21.70;8.50;;;;;;;3.06;66.90;99758.41;4925239;28;101243;-93
2022/02/01 06:50:19;;;;;;;24.67;8.23;;;;;;;3.16;67.12;99778.16;4934737;28;96790;-94
2022/02/01 06:52:58;;;;;;;23.53;7.93;;;;;;;3.25;66.88;99780.63;4925043;28;96750;-93
2022/02/01 06:55:34;;;;;;;18.90;7.97;;;;;;;2.86;66.91;99718.03;4949358;28;100725;-94
2022/02/01 06:58:00;;;;;;;24.10;9.03;;;;;;;2.53;67.26;99690.78;4952647;28;101623;-92
2022/02/01 07:00:26;;;;;;;26.23;9.13;;;;;;;2.59;67.29;99688.13;4954236;28;97097;-92
2022/02/01 07:02:52;;;;;;;22.27;8.67;;;;;;;3.06;67.28;99766.19;4968585;28;97175;-92
2022/02/01 07:05:18;;;;;;;25.43;9.03;;;;;;;2.62;67.88;99695.00;4918573;28;101674;-93
2022/02/01 07:07:43;;;;;;;23.60;8.63;;;;;;;2.86;67.84;99718.03;4918229;28;101467;-94
2022/02/01 07:10:09;;;;;;;25.20;8.20;;;;;;;2.90;67.61;99721.44;4940885;28;97030;-92
2022/02/01 07:12:35;;;;;;;30.53;10.47;;;;;;;2.78;67.77;99704.28;4963791;28;96486;-94
2022/02/01 07:15:01;;;;;;;28.03;10.47;;;;;;;2.95;68.05;99717.06;4946503;28;101568;-92
2022/02/01 07:17:26;;;;;;;25.07;9.33;;;;;;;3.10;67.70;99727.22;4921812;28;101234;-92
2022/02/01 07:19:52;;;;;;;27.13;9.70;;;;;;;3.27;67.56;99772.84;4933625;28;97247;-92
2022/02/01 07:22:18;;;;;;;29.33;10.10;;;;;;;3.16;67.94;99760.84;4951013;28;96963;-92
2022/02/01 07:24:58;;;;;;;28.67;9.93;;;;;;;2.95;67.83;99717.06;4949484;28;101816;-92
2022/02/01 07:27:37;;;;;;;28.67;10.23;;;;;;;3.28;68.17;99770.22;4941995;28;99992;-93
2022/02/01 07:30:13;;;;;;;24.50;9.83;;;;;;;3.06;68.08;99729.91;4928572;28;96614;-92
2022/02/01 07:32:40;;;;;;;30.33;9.50;;;;;;;2.87;67.97;99691.22;4922025;28;96900;-92
2022/02/01 07:35:09;;;;;;;23.47;9.07;;;;;;;3.09;68.04;99729.84;4923448;28;101551;-92
2022/02/01 07:37:36;;;;;;;23.23;9.57;;;;;;;3.09;68.29;99733.31;4937058;28;100089;-93
2022/02/01 07:40:05;;;;;;;21.40;7.97;;;;;;;3.13;68.34;99750.53;4931261;28;96568;-93
2022/02/01 07:42:31;;;;;;;26.57;8.20;;;;;;;3.25;67.88;99746.06;4947192;28;96716;-92
2022/02/01 07:44:59;;;;;;;21.53;8.53;;;;;;;2.74;68.21;99674.13;4952231;28;101544;-92
2022/02/01 07:47:25;;;;;;;22.67;8.27;;;;;;;3.27;68.19;99752.09;4934201;28;101694;-93
2022/02/01 07:49:51;;;;;;;19.57;8.10;;;;;;;3.01;67.95;99687.59;4960617;28;96599;-94
2022/02/01 07:52:17;;;;;;;16.67;7.57;;;;;;;3.11;67.77;99699.53;4950887;28;97123;-94
2022/02/01 07:54:43;;;;;;;21.83;8.27;;;;;;;3.29;68.03;99734.78;4956573;28;97999;-94
2022/02/01 07:57:09;;;;;;;20.27;7.53;;;;;;;3.23;68.03;99721.88;4951876;28;100247;-94
2022/02/01 07:59:35;;;;;;;20.83;6.93;;;;;;;3.42;67.80;99749.28;4953327;28;96871;-92
2022/02/01 08:02:01;;;;;;;21.20;7.10;;;;;;;2.91;67.67;99673.91;4937896;28;96851;-95
2022/02/01 08:04:32;;;;;;;30.23;7.87;;;;;;;3.49;67.95;99756.13;4954123;28;100606;-94
2022/02/01 08:07:02;;;;;;;24.67;7.07;;;;;;;3.56;68.10;99752.53;4930852;28;100823;-94
2022/02/01 08:09:35;;;;;;;20.50;6.23;;;;;;;3.36;68.26;99736.41;4948092;28;96603;-89
2022/02/01 08:12:04;;;;;;;24.67;6.80;;;;;;;3.54;67.87;99750.84;4927595;28;96707;-93
2022/02/01 08:17:08;;;;;;;26.67;7.03;;;;;;;3.39;67.84;99716.44;4967653;28;100980;-94
2022/02/01 08:22:09;;;;;;;21.47;6.33;;;;;;;3.55;67.67;99747.34;4963169;28;96725;-96
2022/02/01 08:24:34;;;;;;;;;;;;;;;3.46;68.09;99743.19;4933480;28;101661;-94
2022/02/01 08:29:54;;;;;;;24.63;6.73;;;;;;;2.92;68.01;99654.88;5025043;22;96441;-95
2022/02/01 08:32:27;;;;;;;23.77;5.73;;;;;;;3.45;67.46;99753.56;4962685;28;96337;-96
2022/02/01 08:34:58;;;;;;;23.17;6.60;;;;;;;2.80;67.50;99653.31;5132615;22;99418;-94
2022/02/01 08:37:35;;;;;;;23.00;5.93;;;;;;;2.88;67.43;99646.28;4962193;28;98058;-96
2022/02/01 08:40:08;;;;;;;17.97;5.83;;;;;;;2.87;67.31;99638.50;4984433;28;96759;-93
2022/02/01 08:42:44;;;;;;;19.05;6.35;;;;;;;3.32;67.23;99707.06;4989013;28;120980;-95
2022/02/01 08:45:12;;;;;;;23.93;5.53;;;;;;;3.24;66.93;99669.13;4951607;28;99449;-96
2022/02/01 08:47:41;;;;;;;17.43;5.77;;;;;;;3.11;67.13;99633.00;4970362;28;99372;-92
2022/02/01 08:50:09;;;;;;;21.83;6.60;;;;;;;3.33;66.86;99671.59;4956761;28;96702;-96
2022/02/01 08:52:44;;;;;;;27.20;7.70;;;;;;;3.65;67.04;99722.16;4997799;28;96853;-96
2022/02/01 09:00:37;;;;;;;24.17;5.73;;;;;;;3.80;66.17;99708.91;4994501;28;96917;-86
2022/02/01 09:03:04;;;;;;;18.00;6.63;;;;;;;3.64;66.68;99684.94;4983708;28;96934;-87
2022/02/01 09:05:31;;;;;;;22.83;6.63;;;;;;;3.81;66.80;99711.50;4954473;28;100008;-88
2022/02/01 09:07:58;;;;;;;19.07;7.73;;;;;;;3.82;66.88;99707.16;4977519;28;99944;-87
2022/02/01 09:10:24;;;;;;;16.80;6.47;;;;;;;3.74;66.96;99701.22;4965864;28;96659;-89
2022/02/01 09:12:50;;;;;;;18.20;6.63;;;;;;;3.55;66.42;99672.97;4963837;28;97050;-87
2022/02/01 09:15:16;;;;;;;19.73;7.27;;;;;;;3.63;66.54;99667.66;4969733;28;101672;-87
2022/02/01 09:17:45;;;;;;;20.57;8.10;;;;;;;3.86;66.37;99714.84;4963084;28;100203;-91
2022/02/01 09:20:11;;;;;;;20.50;8.37;;;;;;;3.72;66.26;99695.19;4965726;28;96522;-91
2022/02/01 09:22:37;;;;;;;18.93;7.60;;;;;;;3.42;65.68;99652.41;4965237;28;96817;-87
2022/02/01 09:25:03;;;;;;;18.17;7.33;;;;;;;3.39;66.24;99633.41;4956196;28;100006;-87
2022/02/01 09:27:28;;;;;;;16.97;6.47;;;;;;;3.48;66.00;99658.38;4963419;28;99682;-87
2022/02/01 09:29:56;;;;;;;16.70;7.20;;;;;;;3.23;66.39;99615.50;4970250;28;97184;-87
2022/02/01 09:32:23;;;;;;;16.80;6.57;;;;;;;3.32;66.12;99607.63;4971821;28;96744;-88
2022/02/01 09:34:49;;;;;;;16.23;6.63;;;;;;;3.47;65.63;99640.25;4948477;28;101272;-89
2022/02/01 09:37:14;;;;;;;22.27;6.97;;;;;;;3.85;65.60;99696.72;4960557;28;100969;-88
2022/02/01 09:39:40;;;;;;;13.80;7.53;;;;;;;3.84;65.67;99692.44;4967348;28;96841;-89
2022/02/01 09:42:06;;;;;;;13.80;6.07;;;;;;;3.88;65.14;99694.06;4951226;28;97527;-88
2022/02/01 09:44:31;;;;;;;17.63;7.03;;;;;;;3.88;65.31;99707.06;4971058;28;101298;-90
2022/02/01 09:47:01;;;;;;;14.07;6.07;;;;;;;3.46;65.13;99620.34;4961262;28;100850;-84
2022/02/01 09:49:27;;;;;;;16.43;6.33;;;;;;;3.68;64.61;99663.25;4985619;28;96902;-86
2022/02/01 09:51:57;;;;;;;14.43;6.13;;;;;;;3.90;65.13;99688.84;4961834;28;96772;-91
2022/02/01 09:54:25;;;;;;;12.80;6.27;;;;;;;3.75;64.71;99670.06;4985209;28;101251;-93
2022/02/01 09:56:52;;;;;;;14.07;7.33;;;;;;;3.68;64.71;99645.06;4970911;28;101205;-92
2022/02/01 09:59:30;;;;;;;13.60;6.30;;;;;;;3.85;64.86;99669.00;4981401;28;97387;-94
2022/02/01 10:01:57;;;;;;;11.73;6.63;;;;;;;3.86;64.98;99665.53;4951155;28;96703;-93
2022/02/01 10:04:29;;;;;;;15.30;6.97;;;;;;;3.80;64.26;99664.78;4963171;28;97416;-93
2022/02/01 10:07:05;;;;;;;16.07;6.37;;;;;;;3.76;64.78;99657.94;4964866;28;99361;-94
2022/02/01 10:09:30;;;;;;;11.40;6.37;;;;;;;3.88;64.54;99670.69;4968500;28;97139;-93
2022/02/01 10:11:57;;;;;;;17.10;6.37;;;;;;;3.88;64.80;99669.84;4977758;28;97192;-90
2022/02/01 10:14:32;;;;;;;12.67;6.70;;;;;;;3.96;64.81;99666.25;4959937;28;101741;-89
2022/02/01 10:17:00;;;;;;;13.60;7.13;;;;;;;3.96;65.31;99649.81;4963005;28;99946;-91
2022/02/01 10:19:26;;;;;;;15.50;6.37;;;;;;;4.04;65.39;99660.88;4971351;28;96979;-91
2022/02/01 10:21:56;;;;;;;12.33;6.27;;;;;;;3.99;65.37;99653.19;4952314;28;96714;-90
2022/02/01 10:24:34;;;;;;;10.67;5.53;;;;;;;3.83;65.82;99639.59;4961049;28;101540;-91
2022/02/01 10:27:10;;;;;;;10.63;6.07;;;;;;;3.95;66.00;99654.13;4964950;28;100293;-91
2022/02/01 10:29:38;;;;;;;11.80;6.17;;;;;;;3.76;66.62;99619.00;4976803;28;97742;-91
2022/02/01 10:32:20;;;;;;;12.80;5.57;;;;;;;3.81;66.40;99625.81;4963470;28;97231;-91
2022/02/01 10:34:47;;;;;;;13.10;7.47;;;;;;;3.94;66.51;99638.56;4967837;28;101303;-90
2022/02/01 10:37:22;;;;;;;16.87;6.73;;;;;;;3.96;67.19;99642.00;4956504;28;99600;-89
2022/02/01 10:39:56;;;;;;;18.90;7.67;;;;;;;3.98;66.94;99625.50;4947927;28;96785;-89
2022/02/01 10:42:23;;;;;;;12.30;7.00;;;;;;;3.96;66.84;99629.88;4962023;28;96845;-90
2022/02/01 10:44:52;;;;;;;10.77;7.37;;;;;;;3.94;67.01;99620.41;4962117;28;102017;-91
2022/02/01 10:47:41;;;;;;;12.30;7.67;;;;;;;3.90;67.30;99621.31;4986740;28;98422;-91
2022/02/01 10:50:07;;;;;;;12.17;7.33;;;;;;;3.83;67.12;99613.66;4959516;28;96849;-90
2022/02/01 10:52:46;;;;;;;12.80;6.77;;;;;;;3.99;66.96;99626.38;4953173;28;97289;-90
2022/02/01 10:55:13;;;;;;;13.20;6.07;;;;;;;3.96;66.26;99629.88;4983893;28;101321;-89
2022/02/01 10:57:40;;;;;;;10.87;5.40;;;;;;;3.97;66.43;99608.22;4962803;28;98862;-90
2022/02/01 11:00:08;;;;;;;10.33;4.43;;;;;;;3.93;66.30;99598.78;4940528;28;98708;-91
2022/02/01 11:02:41;;;;;;;7.63;4.63;;;;;;;3.86;66.08;99586.78;4967591;28;96828;-92
2022/02/01 11:05:09;;;;;;;8.33;4.47;;;;;;;3.66;66.48;99548.19;4968280;28;100094;-90
2022/02/01 11:07:34;;;;;;;8.00;5.03;;;;;;;3.90;66.96;99582.38;4938935;28;100902;-90
2022/02/01 11:10:02;;;;;;;7.90;4.10;;;;;;;3.79;67.27;99561.81;4984539;28;96792;-90
2022/02/01 11:12:39;;;;;;;7.97;4.60;;;;;;;3.91;67.32;99577.16;4970259;28;96891;-90
2022/02/01 11:15:17;;;;;;;7.03;4.37;;;;;;;3.92;66.86;99576.28;4941747;28;98924;-89
2022/02/01 11:17:45;;;;;;;6.63;4.23;;;;;;;3.90;66.67;99566.78;4957543;28;100041;-92
2022/02/01 11:20:11;;;;;;;8.00;4.20;;;;;;;3.99;66.74;99577.03;4980811;28;97124;-90
2022/02/01 11:22:41;;;;;;;11.10;4.00;;;;;;;4.05;65.97;99569.97;4969248;28;97392;-91
2022/02/01 11:25:21;;;;;;;7.53;3.27;;;;;;;4.00;65.48;99564.00;4959303;28;100479;-91
2022/02/01 11:30:40;;;;;;;7.70;3.43;;;;;;;4.01;65.06;99567.44;4974213;28;96720;-91
2022/02/01 11:33:07;;;;;;;9.07;4.17;;;;;;;4.04;65.06;99560.47;4957873;28;96801;-90
2022/02/01 11:35:33;;;;;;;6.93;3.83;;;;;;;3.99;64.72;99546.72;4973579;28;98134;-90
2022/02/01 11:38:07;;;;;;;12.90;3.97;;;;;;;4.10;64.11;99559.47;4974144;28;98633;-90
2022/02/01 11:41:03;;;;;;;11.70;4.00;;;;;;;4.11;63.87;99544.78;4970451;28;97358;-87
2022/02/01 11:43:29;;;;;;;8.47;3.63;;;;;;;3.95;63.48;99533.81;4966531;28;98774;-90
2022/02/01 11:45:57;;;;;;;10.57;3.97;;;;;;;4.12;63.64;99555.13;4956924;28;101012;-91
2022/02/01 11:48:30;;;;;;;9.53;3.80;;;;;;;4.05;63.69;99545.75;4964164;28;97636;-90
2022/02/01 11:51:16;;;;;;;11.57;4.80;;;;;;;4.05;63.82;99550.94;4956277;28;96867;-90
2022/02/01 11:53:43;;;;;;;11.53;4.07;;;;;;;3.96;63.89;99510.41;4945284;28;96725;-90
2022/02/01 11:56:12;;;;;;;8.23;3.97;;;;;;;4.17;63.81;99545.50;4964437;28;101758;-91
2022/02/01 11:58:45;;;;;;;11.43;3.37;;;;;;;4.02;63.85;99518.09;4969404;28;100649;-90
2022/02/01 12:01:31;;;;;;;9.47;3.93;;;;;;;4.22;63.69;99542.81;4944943;28;96660;-90
2022/02/01 12:04:09;;;;;;;15.37;3.70;;;;;;;4.23;63.61;99529.78;4950802;28;97159;-90
2022/02/01 12:06:43;;;;;;;11.27;3.83;;;;;;;4.23;63.37;99521.97;4964540;28;100556;-90
2022/02/01 12:09:13;;;;;;;9.50;3.37;;;;;;;4.29;63.07;99528.78;4965104;28;97277;-91
2022/02/01 12:11:42;;;;;;;10.90;3.83;;;;;;;4.35;63.12;99533.00;4948618;28;96723;-89
2022/02/01 12:14:08;;;;;;;14.07;3.80;;;;;;;4.29;63.30;99516.66;4934087;28;98032;-90
2022/02/01 12:16:34;;;;;;;11.10;3.57;;;;;;;4.22;63.05;99494.31;4953506;28;97856;-89
2022/02/01 12:19:07;;;;;;;7.93;3.77;;;;;;;4.32;63.17;99503.59;4955819;28;98245;-90
2022/02/01 12:21:41;;;;;;;9.03;3.70;;;;;;;4.36;63.49;99517.38;4934784;28;97134;-83
2022/02/01 12:24:07;;;;;;;11.57;3.90;;;;;;;4.31;62.93;99507.09;4954083;28;97380;-89
2022/02/01 12:26:35;;;;;;;13.37;3.80;;;;;;;4.32;63.26;99505.34;4934265;28;101514;-89
2022/02/01 12:29:03;;;;;;;15.83;4.03;;;;;;;4.28;63.32;99501.13;4936796;28;100706;-86
2022/02/01 12:31:31;;;;;;;13.77;3.77;;;;;;;4.29;62.63;99495.88;4953558;28;97702;-87
2022/02/01 12:34:01;;;;;;;9.93;3.90;;;;;;;4.23;62.56;99489.94;4956434;28;96719;-88
2022/02/01 12:36:32;;;;;;;11.17;3.40;;;;;;;4.31;62.69;99495.84;4943989;28;101632;-88
2022/02/01 12:39:15;;;;;;;9.95;3.33;;;;;;;4.40;62.50;99492.19;4964110;28;96707;-89
2022/02/01 12:42:07;;;;;;;14.70;6.33;;;;;;;4.33;62.02;99478.47;4951302;28;96829;-88
2022/02/01 12:47:07;;;;;;;14.93;3.90;;;;;;;4.47;62.51;99496.34;4946780;28;101659;-87
2022/02/01 12:49:47;;;;;;;13.07;3.45;;;;;;;4.28;61.85;99467.34;4950850;28;100355;-88
2022/02/01 12:52:21;;;;;;;15.40;3.73;;;;;;;4.26;62.12;99456.97;4957977;28;97207;-89
2022/02/01 12:54:48;;;;;;;14.77;3.50;;;;;;;4.50;61.97;99498.88;4940674;28;97385;-88
2022/02/01 12:57:16;;;;;;;15.70;4.33;;;;;;;4.05;61.64;99428.88;4946545;28;101255;-88
2022/02/01 13:00:18;;;;;;;13.23;3.70;;;;;;;4.43;61.90;99485.19;4942442;28;101456;-90
2022/02/01 13:02:44;;;;;;;10.57;3.67;;;;;;;4.45;62.55;99483.41;4964374;28;96917;-89
2022/02/01 13:05:13;;;;;;;10.37;3.20;;;;;;;4.43;62.33;99474.78;4952035;28;97070;-89
2022/02/01 13:15:38;;;;;;;11.47;3.50;;;;;;;4.38;62.69;99460.19;4964171;28;96907;-90
2022/02/01 13:20:04;;;;;;;12.20;3.20;;;;;;;4.42;62.36;99460.09;4983176;28;97993;-87
2022/02/01 13:21:06;;;;;;;16.33;5.00;;;;;;;4.47;62.79;99457.38;4971281;28;98281;-89
2022/02/01 13:23:46;;;;;;;17.33;6.23;;;;;;;4.50;63.39;99457.31;4973717;28;96904;-88
2022/02/01 13:26:14;;;;;;;23.87;8.13;;;;;;;4.38;63.51;99434.19;4941418;28;96803;-89